createdAt,value
2018-01-27T00:02:14.190Z,29.03
2018-01-27T00:04:42.539Z,28.73
2018-01-27T00:07:11.786Z,30.20
2018-01-27T00:09:40.372Z,33.07
2018-01-27T00:12:08.660Z,28.83
2018-01-27T00:14:37.028Z,32.13
2018-01-27T00:17:05.547Z,31.20
2018-01-27T00:19:33.864Z,35.80
2018-01-27T00:22:02.951Z,32.83
2018-01-27T00:24:32.054Z,32.30
2018-01-27T00:27:01.152Z,32.83
2018-01-27T00:29:30.244Z,31.80
2018-01-27T00:31:59.381Z,32.50
2018-01-27T00:34:27.721Z,32.00
2018-01-27T00:36:56.055Z,31.10
2018-01-27T00:39:24.571Z,35.10
2018-01-27T00:41:53.672Z,33.37
2018-01-27T00:44:22.784Z,33.07
2018-01-27T00:46:51.564Z,31.43
2018-01-27T00:49:19.895Z,32.77
2018-01-27T00:51:48.232Z,30.37
2018-01-27T00:54:16.585Z,31.30
2018-01-27T00:56:44.970Z,28.97
2018-01-27T00:59:14.082Z,31.17
2018-01-27T01:01:42.651Z,33.37
2018-01-27T01:04:11.761Z,34.37
2018-01-27T01:06:40.842Z,35.27
2018-01-27T01:09:09.998Z,35.73
2018-01-27T01:11:38.303Z,38.40
2018-01-27T01:14:06.635Z,36.80
2018-01-27T01:16:35.015Z,38.70
2018-01-27T01:19:03.721Z,39.70
2018-01-27T01:21:32.047Z,36.20
2018-01-27T01:24:01.771Z,38.73
2018-01-27T01:26:30.080Z,38.10
2018-01-27T01:28:58.405Z,36.90
2018-01-27T01:31:27.532Z,31.43
2018-01-27T01:33:55.833Z,30.80
2018-01-27T01:36:24.155Z,30.60
2018-01-27T01:38:52.483Z,30.67
2018-01-27T01:41:20.818Z,29.67
2018-01-27T01:43:55.939Z,30.43
2018-01-27T01:46:24.249Z,31.07
2018-01-27T01:48:52.565Z,30.40
2018-01-27T01:51:20.962Z,30.43
2018-01-27T01:53:49.305Z,28.63
2018-01-27T01:56:17.610Z,31.40
2018-01-27T01:58:46.210Z,29.83
2018-01-27T02:01:14.506Z,32.33
2018-01-27T02:03:42.816Z,28.73
2018-01-27T02:06:11.415Z,31.50
2018-01-27T02:08:39.727Z,31.87
2018-01-27T02:11:08.069Z,30.83
2018-01-27T02:13:36.384Z,30.07
2018-01-27T02:16:04.722Z,30.07
2018-01-27T02:18:33.058Z,30.90
2018-01-27T02:21:02.798Z,32.10
2018-01-27T02:23:31.119Z,32.37
2018-01-27T02:25:59.426Z,32.00
2018-01-27T02:28:28.309Z,33.40
2018-01-27T02:30:56.648Z,32.10
2018-01-27T02:33:24.949Z,30.57
2018-01-27T02:35:53.760Z,30.70
2018-01-27T02:38:22.853Z,33.00
2018-01-27T02:40:51.143Z,31.80
2018-01-27T02:43:20.296Z,30.73
2018-01-27T02:45:48.602Z,33.73
2018-01-27T02:48:16.917Z,33.37
2018-01-27T02:50:45.732Z,33.07
2018-01-27T02:53:14.052Z,32.70
2018-01-27T02:55:42.401Z,32.77
2018-01-27T02:58:10.795Z,33.03
2018-01-27T03:00:39.099Z,33.80
2018-01-27T03:03:08.238Z,31.47
2018-01-27T03:05:36.581Z,32.20
2018-01-27T03:08:05.679Z,31.20
2018-01-27T03:10:33.985Z,30.50
2018-01-27T03:13:02.957Z,29.60
2018-01-27T03:15:32.013Z,31.37
2018-01-27T03:18:00.364Z,29.63
2018-01-27T03:20:28.730Z,31.27
2018-01-27T03:22:57.412Z,28.17
2018-01-27T03:25:25.756Z,26.47
2018-01-27T03:27:54.903Z,28.03
2018-01-27T03:30:23.283Z,26.80
2018-01-27T03:32:51.636Z,28.70
2018-01-27T03:35:20.185Z,28.50
2018-01-27T03:37:49.277Z,28.67
2018-01-27T03:40:17.628Z,25.73
2018-01-27T03:42:45.994Z,25.33
2018-01-27T03:45:14.367Z,27.40
2018-01-27T03:47:42.674Z,27.03
2018-01-27T03:50:12.091Z,27.40
2018-01-27T03:52:40.408Z,26.40
2018-01-27T03:55:08.729Z,27.33
2018-01-27T03:57:37.376Z,26.80
2018-01-27T04:00:05.700Z,28.57
2018-01-27T04:02:34.008Z,27.83
2018-01-27T04:05:02.333Z,28.33
2018-01-27T04:07:30.616Z,27.90
2018-01-27T04:09:58.922Z,27.47
2018-01-27T04:12:27.263Z,28.10
2018-01-27T04:14:55.645Z,27.83
2018-01-27T04:17:23.963Z,26.30
2018-01-27T04:19:52.866Z,27.93
2018-01-27T04:22:21.956Z,26.80
2018-01-27T04:24:50.296Z,25.57
2018-01-27T04:27:18.892Z,24.63
2018-01-27T04:29:47.208Z,25.70
2018-01-27T04:32:15.520Z,25.33
2018-01-27T04:34:43.847Z,25.50
2018-01-27T04:37:12.180Z,25.00
2018-01-27T04:39:40.487Z,28.17
2018-01-27T04:42:08.896Z,26.30
2018-01-27T04:44:38.003Z,26.40
2018-01-27T04:47:06.391Z,25.57
2018-01-27T04:49:34.800Z,26.80
2018-01-27T04:52:03.217Z,26.20
2018-01-27T04:54:31.594Z,25.60
2018-01-27T04:56:59.972Z,26.10
2018-01-27T04:59:28.353Z,25.60
2018-01-27T05:01:56.757Z,25.30
2018-01-27T05:04:25.847Z,25.93
2018-01-27T05:06:54.966Z,25.23
2018-01-27T05:09:23.318Z,25.53
2018-01-27T05:11:51.653Z,25.47
2018-01-27T05:14:19.995Z,28.13
2018-01-27T05:16:49.135Z,26.67
2018-01-27T05:19:17.474Z,25.80
2018-01-27T05:21:45.820Z,26.23
2018-01-27T05:24:14.196Z,25.40
2018-01-27T05:26:43.192Z,24.30
2018-01-27T05:29:11.571Z,25.03
2018-01-27T05:31:39.953Z,25.30
2018-01-27T05:34:08.281Z,25.00
2018-01-27T05:36:36.645Z,25.47
2018-01-27T05:39:05.804Z,26.07
2018-01-27T05:41:34.658Z,26.93
2018-01-27T05:44:03.075Z,24.13
2018-01-27T05:46:31.440Z,24.87
2018-01-27T05:49:00.144Z,24.97
2018-01-27T05:51:28.522Z,24.40
2018-01-27T05:53:56.935Z,24.80
2018-01-27T05:56:26.096Z,24.47
2018-01-27T05:58:54.509Z,24.60
2018-01-27T06:01:23.676Z,24.10
2018-01-27T06:03:52.165Z,26.07
2018-01-27T06:06:20.554Z,26.60
2018-01-27T06:08:48.940Z,23.77
2018-01-27T06:11:17.519Z,25.27
2018-01-27T06:13:46.602Z,25.07
2018-01-27T06:16:14.976Z,26.23
2018-01-27T06:18:43.957Z,25.40
2018-01-27T06:21:12.350Z,25.20
2018-01-27T06:23:40.645Z,25.20
2018-01-27T06:26:08.984Z,25.50
2018-01-27T06:28:37.312Z,24.87
2018-01-27T06:31:06.450Z,24.90
2018-01-27T06:33:35.246Z,24.17
2018-01-27T06:36:03.692Z,24.70
2018-01-27T06:38:32.112Z,25.40
2018-01-27T06:41:00.540Z,25.63
2018-01-27T06:43:29.704Z,26.73
2018-01-27T06:45:58.054Z,23.73
2018-01-27T06:48:26.448Z,25.00
2018-01-27T06:50:54.975Z,23.60
2018-01-27T06:53:24.188Z,24.20
2018-01-27T06:55:53.999Z,24.87
2018-01-27T06:58:22.448Z,25.10
2018-01-27T07:00:50.787Z,22.43
2018-01-27T07:03:19.157Z,24.60
2018-01-27T07:05:47.603Z,25.17
2018-01-27T07:08:16.813Z,25.00
2018-01-27T07:10:45.296Z,24.63
2018-01-27T07:13:14.497Z,22.97
2018-01-27T07:15:43.591Z,25.00
2018-01-27T07:18:13.439Z,25.80
2018-01-27T07:20:41.783Z,24.60
2018-01-27T07:23:10.121Z,24.57
2018-01-27T07:25:38.496Z,24.00
2018-01-27T07:28:06.877Z,24.67
2018-01-27T07:30:35.283Z,24.47
2018-01-27T07:33:04.134Z,24.47
2018-01-27T07:35:32.539Z,25.30
2018-01-27T07:38:00.920Z,23.40
2018-01-27T07:40:29.474Z,25.90
2018-01-27T07:42:57.863Z,23.53
2018-01-27T07:45:26.276Z,23.03
2018-01-27T07:47:54.748Z,23.07
2018-01-27T07:50:23.065Z,22.60
2018-01-27T07:52:51.405Z,25.67
2018-01-27T07:57:54.964Z,24.00
2018-01-27T08:00:23.682Z,24.07
2018-01-27T08:02:52.066Z,23.30
2018-01-27T08:05:20.534Z,24.47
2018-01-27T08:07:49.362Z,22.00
2018-01-27T08:10:17.674Z,23.57
2018-01-27T08:12:46.008Z,21.63
2018-01-27T08:15:14.404Z,28.60
2018-01-27T08:17:42.868Z,24.10
2018-01-27T08:20:11.237Z,22.43
2018-01-27T08:22:40.041Z,19.87
2018-01-27T08:25:08.428Z,21.33
2018-01-27T08:27:36.769Z,21.80
2018-01-27T08:30:05.151Z,18.30
2018-01-27T08:32:33.520Z,17.80
2018-01-27T08:35:01.959Z,18.13
2018-01-27T08:37:30.545Z,19.30
2018-01-27T08:39:58.897Z,20.50
2018-01-27T08:42:27.385Z,22.50
2018-01-27T08:44:56.208Z,21.43
2018-01-27T08:47:24.541Z,21.67
2018-01-27T08:49:52.851Z,20.60
2018-01-27T08:52:22.033Z,22.40
2018-01-27T08:54:50.423Z,23.33
2018-01-27T08:57:18.789Z,24.27
2018-01-27T08:59:48.192Z,23.50
2018-01-27T09:02:16.675Z,23.80
2018-01-27T09:04:45.118Z,23.30
2018-01-27T09:07:13.841Z,23.03
2018-01-27T09:09:42.231Z,25.07
2018-01-27T09:12:10.532Z,22.90
2018-01-27T09:14:40.044Z,22.23
2018-01-27T09:17:08.382Z,24.30
2018-01-27T09:19:36.720Z,25.30
2018-01-27T09:22:05.317Z,24.30
2018-01-27T09:24:33.661Z,24.73
2018-01-27T09:27:02.831Z,24.37
2018-01-27T09:29:31.786Z,22.77
2018-01-27T09:32:00.199Z,24.10
2018-01-27T09:34:28.522Z,24.83
2018-01-27T09:36:56.878Z,25.80
2018-01-27T09:39:25.969Z,24.83
2018-01-27T09:41:55.127Z,24.70
2018-01-27T09:44:23.556Z,22.80
2018-01-27T09:46:52.692Z,24.70
2018-01-27T09:49:21.092Z,23.70
2018-01-27T09:51:50.682Z,26.10
2018-01-27T09:54:19.093Z,24.80
2018-01-27T09:56:47.474Z,23.00
2018-01-27T09:59:16.134Z,25.00
2018-01-27T10:01:44.501Z,24.40
2018-01-27T10:04:12.926Z,23.87
2018-01-27T10:06:41.287Z,23.70
2018-01-27T10:09:09.628Z,24.10
2018-01-27T10:11:37.971Z,22.50
2018-01-27T10:14:07.268Z,23.00
2018-01-27T10:16:35.595Z,24.27
2018-01-27T10:19:03.932Z,23.50
2018-01-27T10:21:33.057Z,23.00
2018-01-27T10:24:01.396Z,23.50
2018-01-27T10:26:29.756Z,22.63
2018-01-27T10:28:58.085Z,22.33
2018-01-27T10:31:26.428Z,23.53
2018-01-27T10:33:54.786Z,23.20
2018-01-27T10:36:23.444Z,23.20
2018-01-27T10:38:51.747Z,22.03
2018-01-27T10:41:20.087Z,24.87
2018-01-27T10:43:48.531Z,24.23
2018-01-27T10:46:16.889Z,24.73
2018-01-27T10:48:45.225Z,24.10
2018-01-27T10:51:13.579Z,26.37
2018-01-27T10:53:42.699Z,25.37
2018-01-27T10:56:11.786Z,25.20
2018-01-27T10:58:41.645Z,24.00
2018-01-27T11:01:09.994Z,25.40
2018-01-27T11:03:38.519Z,25.23
2018-01-27T11:06:06.882Z,25.10
2018-01-27T11:08:35.232Z,24.60
2018-01-27T11:11:04.357Z,27.17
2018-01-27T11:13:33.109Z,27.30
2018-01-27T11:16:01.441Z,26.70
2018-01-27T11:18:29.786Z,26.77
2018-01-27T11:20:58.366Z,26.43
2018-01-27T11:23:26.696Z,26.50
2018-01-27T11:25:55.056Z,28.07
2018-01-27T11:28:23.412Z,27.77
2018-01-27T11:30:51.722Z,30.10
2018-01-27T11:33:20.071Z,29.80
2018-01-27T11:35:48.398Z,29.57
2018-01-27T11:38:16.713Z,32.30
2018-01-27T11:40:45.021Z,29.40
2018-01-27T11:43:13.585Z,31.87
2018-01-27T11:45:41.891Z,32.70
2018-01-27T11:48:10.237Z,34.27
2018-01-27T11:50:39.058Z,34.10
2018-01-27T11:53:07.421Z,35.33
2018-01-27T11:55:35.769Z,37.50
2018-01-27T11:58:04.123Z,36.30
2018-01-27T12:00:33.231Z,34.53
2018-01-27T12:03:01.576Z,34.87
2018-01-27T12:05:30.179Z,37.10
2018-01-27T12:07:59.296Z,37.60
2018-01-27T12:10:28.388Z,37.00
2018-01-27T12:12:57.535Z,37.93
2018-01-27T12:15:25.881Z,38.53
2018-01-27T12:17:54.219Z,36.57
2018-01-27T12:20:22.597Z,38.50
2018-01-27T12:22:50.968Z,37.43
2018-01-27T12:25:19.293Z,36.37
2018-01-27T12:27:48.175Z,38.40
2018-01-27T12:30:16.511Z,39.00
2018-01-27T12:32:44.857Z,37.93
2018-01-27T12:35:13.225Z,39.80
2018-01-27T12:37:41.524Z,36.40
2018-01-27T12:40:09.872Z,40.47
2018-01-27T12:42:38.218Z,37.97
2018-01-27T12:45:06.564Z,42.40
2018-01-27T12:47:34.891Z,38.90
2018-01-27T12:50:04.328Z,37.90
2018-01-27T12:52:32.730Z,37.80
2018-01-27T12:55:01.063Z,38.27
2018-01-27T12:57:30.189Z,36.00
2018-01-27T12:59:58.528Z,36.23
2018-01-27T13:02:27.637Z,36.47
2018-01-27T13:04:57.028Z,38.30
2018-01-27T13:07:26.139Z,37.90
2018-01-27T13:09:54.523Z,37.57
2018-01-27T13:12:23.249Z,33.93
2018-01-27T13:14:51.575Z,36.00
2018-01-27T13:17:19.901Z,37.90
2018-01-27T13:19:48.257Z,35.23
2018-01-27T13:22:16.612Z,34.80
2018-01-27T13:24:44.974Z,35.67
2018-01-27T13:27:13.349Z,35.00
2018-01-27T13:29:41.673Z,33.47
2018-01-27T13:32:10.084Z,35.23
2018-01-27T13:34:38.757Z,34.50
2018-01-27T13:37:07.350Z,36.70
2018-01-27T13:39:35.667Z,34.77
2018-01-27T13:42:05.264Z,35.23
2018-01-27T13:44:33.560Z,35.50
2018-01-27T13:47:01.902Z,31.50
2018-01-27T13:49:30.272Z,36.30
2018-01-27T13:51:58.777Z,35.97
2018-01-27T13:54:27.117Z,36.97
2018-01-27T13:56:55.970Z,33.73
2018-01-27T13:59:24.343Z,32.37
2018-01-27T14:01:53.505Z,33.50
2018-01-27T14:04:22.016Z,34.20
2018-01-27T14:06:50.426Z,31.73
2018-01-27T14:09:18.862Z,31.40
2018-01-27T14:11:47.237Z,31.90
2018-01-27T14:14:15.627Z,33.10
2018-01-27T14:16:44.044Z,32.57
2018-01-27T14:19:12.992Z,34.20
2018-01-27T14:21:41.478Z,33.40
2018-01-27T14:24:10.352Z,33.70
2018-01-27T14:26:38.852Z,32.43
2018-01-27T14:29:07.157Z,33.83
2018-01-27T14:31:36.247Z,35.30
2018-01-27T14:34:05.536Z,32.90
2018-01-27T14:36:39.764Z,31.77
2018-01-27T14:39:09.045Z,31.80
2018-01-27T14:41:37.464Z,32.70
2018-01-27T14:44:05.833Z,35.10
2018-01-27T14:46:34.387Z,31.87
2018-01-27T14:49:02.753Z,32.10
2018-01-27T14:51:31.086Z,30.77
2018-01-27T14:53:59.706Z,31.13
2018-01-27T14:56:28.049Z,30.80
2018-01-27T14:58:56.488Z,28.77
2018-01-27T15:01:25.129Z,29.27
2018-01-27T15:03:53.592Z,30.67
2018-01-27T15:06:22.008Z,26.70
2018-01-27T15:08:50.444Z,28.20
2018-01-27T15:11:19.663Z,27.60
2018-01-27T15:13:53.854Z,28.20
2018-01-27T15:16:23.034Z,27.00
2018-01-27T15:18:57.171Z,23.93
2018-01-27T15:21:31.020Z,23.60
2018-01-27T15:24:02.883Z,23.90
2018-01-27T15:26:32.926Z,22.10
2018-01-27T15:29:02.138Z,21.70
2018-01-27T15:31:33.631Z,22.57
2018-01-27T15:34:07.486Z,23.30
2018-01-27T15:36:38.729Z,23.20
2018-01-27T15:39:08.166Z,22.80
2018-01-27T15:41:39.700Z,22.67
2018-01-27T15:44:11.330Z,21.03
2018-01-27T15:46:40.755Z,19.87
2018-01-27T15:49:09.900Z,19.73
2018-01-27T15:51:46.131Z,20.30
2018-01-27T15:54:15.781Z,20.00
2018-01-27T15:56:48.498Z,20.30
2018-01-27T15:59:16.900Z,20.37
2018-01-27T16:01:48.665Z,19.00
2018-01-27T16:04:17.411Z,18.57
2018-01-27T16:06:50.201Z,18.53
2018-01-27T16:09:26.330Z,20.37
2018-01-27T16:11:57.291Z,19.60
2018-01-27T16:14:28.333Z,19.57
2018-01-27T16:17:01.847Z,19.33
2018-01-27T16:19:37.449Z,18.80
2018-01-27T16:22:05.756Z,17.47
2018-01-27T16:24:34.472Z,18.57
2018-01-27T16:27:03.038Z,17.97
2018-01-27T16:29:31.357Z,17.70
2018-01-27T16:32:00.460Z,18.20
2018-01-27T16:34:29.525Z,19.83
2018-01-27T16:36:57.861Z,20.77
2018-01-27T16:39:26.210Z,19.53
2018-01-27T16:41:54.543Z,19.77
2018-01-27T16:44:22.914Z,19.30
2018-01-27T16:46:51.505Z,19.77
2018-01-27T16:49:19.814Z,21.20
2018-01-27T16:51:48.885Z,19.80
2018-01-27T16:54:17.250Z,22.27
2018-01-27T16:56:45.616Z,20.00
2018-01-27T16:59:13.932Z,20.40
2018-01-27T17:01:42.293Z,22.03
2018-01-27T17:04:10.622Z,22.00
2018-01-27T17:06:38.924Z,23.70
2018-01-27T17:09:07.696Z,22.37
2018-01-27T17:11:36.270Z,22.27
2018-01-27T17:14:04.611Z,21.40
2018-01-27T17:16:32.952Z,21.77
2018-01-27T17:19:01.277Z,19.37
2018-01-27T17:21:29.669Z,21.05
2018-01-27T17:23:58.819Z,22.70
2018-01-27T17:26:27.173Z,21.15
2018-01-27T17:28:55.513Z,20.80
2018-01-27T17:31:24.926Z,21.25
2018-01-27T17:33:53.276Z,18.83
2018-01-27T17:36:23.145Z,20.33
2018-01-27T17:38:51.533Z,19.77
2018-01-27T17:41:19.873Z,21.35
2018-01-27T17:43:48.194Z,22.70
2018-01-27T17:46:16.607Z,23.80
2018-01-27T17:48:44.955Z,23.27
2018-01-27T17:51:13.303Z,22.08
2018-01-27T17:53:42.503Z,23.15
2018-01-27T17:56:11.643Z,24.50
2018-01-27T17:58:39.953Z,21.92
2018-01-27T18:01:08.290Z,24.30
2018-01-27T18:03:36.674Z,23.10
2018-01-27T18:06:05.031Z,21.90
2018-01-27T18:08:33.396Z,23.40
2018-01-27T18:11:02.508Z,23.02
2018-01-27T18:13:30.849Z,25.67
2018-01-27T18:16:00.268Z,24.83
2018-01-27T18:18:29.373Z,27.45
2018-01-27T18:20:57.728Z,24.77
2018-01-27T18:23:26.105Z,23.98
2018-01-27T18:25:54.462Z,25.37
2018-01-27T18:28:22.869Z,26.02
2018-01-27T18:30:52.038Z,27.00
2018-01-27T18:33:21.153Z,25.17
2018-01-27T18:35:49.527Z,26.52
2018-01-27T18:38:18.087Z,25.92
2018-01-27T18:40:46.422Z,25.50
2018-01-27T18:43:15.559Z,26.50
2018-01-27T18:45:43.906Z,26.33
2018-01-27T18:48:12.344Z,25.80
2018-01-27T18:50:40.685Z,27.37
2018-01-27T18:53:09.031Z,27.97
2018-01-27T18:55:38.123Z,27.80
2018-01-27T18:58:06.492Z,27.33
2018-01-27T19:00:35.200Z,28.33
2018-01-27T19:03:03.517Z,25.77
2018-01-27T19:05:31.827Z,27.35
2018-01-27T19:08:00.204Z,26.37
2018-01-27T19:10:28.509Z,25.27
2018-01-27T19:12:56.863Z,24.40
2018-01-27T19:15:25.252Z,23.87
2018-01-27T19:17:53.609Z,26.17
2018-01-27T19:20:22.090Z,24.83
2018-01-27T19:22:50.698Z,23.77
2018-01-27T19:25:19.936Z,24.95
2018-01-27T19:27:48.300Z,26.23
2018-01-27T19:30:16.657Z,27.67
2018-01-27T19:32:45.845Z,21.00
2018-01-27T19:35:14.225Z,24.70
2018-01-27T19:37:42.681Z,23.92
2018-01-27T19:40:11.087Z,24.57
2018-01-27T19:42:39.472Z,23.70
2018-01-27T19:45:07.946Z,25.37
2018-01-27T19:47:36.278Z,23.27
2018-01-27T19:50:04.725Z,23.55
2018-01-27T19:52:33.193Z,22.58
2018-01-27T19:55:01.686Z,23.67
2018-01-27T19:57:30.915Z,21.90
2018-01-27T19:59:59.354Z,21.90
2018-01-27T20:02:27.714Z,22.20
2018-01-27T20:04:56.156Z,19.03
2018-01-27T20:07:24.750Z,20.10
2018-01-27T20:09:53.145Z,20.57
2018-01-27T20:12:21.537Z,18.00
2018-01-27T20:14:49.981Z,19.30
2018-01-27T20:17:19.134Z,19.57
2018-01-27T20:19:47.519Z,20.17
2018-01-27T20:22:16.002Z,18.37
2018-01-27T20:24:44.474Z,18.33
2018-01-27T20:27:12.854Z,16.97
2018-01-27T20:29:41.541Z,18.10
2018-01-27T20:32:09.895Z,16.80
2018-01-27T20:34:38.304Z,17.95
2018-01-27T20:37:06.752Z,17.23
2018-01-27T20:39:35.113Z,19.07
2018-01-27T20:42:03.520Z,18.70
2018-01-27T20:44:31.960Z,17.70
2018-01-27T20:47:00.365Z,18.30
2018-01-27T20:49:28.780Z,17.25
2018-01-27T20:51:57.378Z,16.73
2018-01-27T20:54:25.748Z,14.70
2018-01-27T20:56:54.092Z,17.43
2018-01-27T20:59:22.466Z,16.07
2018-01-27T21:01:50.786Z,16.00
2018-01-27T21:04:19.113Z,15.97
2018-01-27T21:06:47.467Z,15.93
2018-01-27T21:09:16.537Z,15.45
2018-01-27T21:11:44.888Z,15.20
2018-01-27T21:14:13.526Z,14.63
2018-01-27T21:16:42.641Z,14.20
2018-01-27T21:19:11.018Z,15.73
2018-01-27T21:21:39.691Z,15.50
2018-01-27T21:24:08.799Z,13.87
2018-01-27T21:26:37.137Z,14.77
2018-01-27T21:29:05.511Z,14.83
2018-01-27T21:31:33.826Z,15.20
2018-01-27T21:34:02.186Z,14.57
2018-01-27T21:36:31.364Z,14.40
2018-01-27T21:38:59.687Z,14.90
2018-01-27T21:41:28.026Z,15.23
2018-01-27T21:43:57.212Z,14.30
2018-01-27T21:46:25.571Z,12.77
2018-01-27T21:48:53.957Z,13.82
2018-01-27T21:51:22.316Z,15.33
2018-01-27T21:53:50.648Z,13.53
2018-01-27T21:56:18.979Z,13.00
2018-01-27T21:58:47.533Z,11.60
2018-01-27T22:01:16.646Z,11.90
2018-01-27T22:03:45.024Z,12.70
2018-01-27T22:06:13.381Z,12.00
2018-01-27T22:08:41.690Z,11.80
2018-01-27T22:11:09.984Z,12.20
2018-01-27T22:13:39.120Z,12.27
2018-01-27T22:16:08.217Z,11.98
2018-01-27T22:18:36.530Z,11.67
2018-01-27T22:21:04.929Z,10.10
2018-01-27T22:23:33.241Z,10.60
2018-01-27T22:26:01.566Z,10.40
2018-01-27T22:28:29.941Z,11.33
2018-01-27T22:30:58.542Z,11.23
2018-01-27T22:33:26.844Z,10.10
2018-01-27T22:35:55.192Z,9.93
2018-01-27T22:38:23.550Z,10.30
2018-01-27T22:40:52.658Z,10.97
2018-01-27T22:43:21.099Z,9.00
2018-01-27T22:45:49.485Z,9.90
2018-01-27T22:48:17.812Z,10.18
2018-01-27T22:50:46.229Z,7.73
2018-01-27T22:53:14.616Z,8.87
2018-01-27T22:55:43.006Z,9.00
2018-01-27T22:58:12.126Z,9.83
2018-01-27T23:03:47.567Z,9.33
2018-01-27T23:06:16.661Z,8.20
2018-01-27T23:08:44.970Z,8.30
2018-01-27T23:11:13.371Z,8.48
2018-01-27T23:13:41.796Z,8.38
2018-01-27T23:16:10.101Z,9.40
2018-01-27T23:18:38.577Z,9.23
2018-01-27T23:21:07.675Z,8.93
2018-01-27T23:23:36.016Z,8.77
2018-01-27T23:26:04.575Z,7.78
2018-01-27T23:28:32.915Z,10.13
2018-01-27T23:31:01.886Z,9.15
2018-01-27T23:33:30.285Z,9.10
2018-01-27T23:35:59.474Z,9.60
2018-01-27T23:38:27.772Z,9.05
2018-01-27T23:40:56.161Z,9.57
2018-01-27T23:43:24.508Z,10.00
2018-01-27T23:45:52.983Z,9.60
2018-01-27T23:48:21.462Z,9.20
2018-01-27T23:50:49.794Z,9.57
2018-01-27T23:53:18.198Z,9.95
2018-01-27T23:55:46.605Z,9.40
2018-01-27T23:58:14.932Z,9.93
